createdAt,value
2018-08-13T00:00:23.075Z,96244.52
2018-08-13T00:01:58.584Z,96236.02
2018-08-13T00:03:35.555Z,96234.84
2018-08-13T00:05:11.699Z,96231.52
2018-08-13T00:08:30.934Z,96225.42
2018-08-13T00:10:07.535Z,96218.74
2018-08-13T00:11:43.014Z,96215.02
2018-08-13T00:13:18.954Z,96210.91
2018-08-13T00:14:59.496Z,96202.48
2018-08-13T00:16:37.434Z,96206.77
2018-08-13T00:18:17.865Z,96210.34
2018-08-13T00:19:53.716Z,96203.55
2018-08-13T00:23:18.001Z,96190.42
2018-08-13T00:24:53.055Z,96189.52
2018-08-13T00:26:28.121Z,96192.77
2018-08-13T00:28:05.270Z,96188.88
2018-08-13T00:29:40.685Z,96188.31
2018-08-13T00:31:16.520Z,96195.04
2018-08-13T00:32:52.376Z,96196.35
2018-08-13T00:34:28.237Z,96197.02
2018-08-13T00:36:04.669Z,96188.84
2018-08-13T00:37:41.951Z,96188.57
2018-08-13T00:39:17.344Z,96187.13
2018-08-13T00:40:54.340Z,96187.47
2018-08-13T00:42:29.354Z,96187.61
2018-08-13T00:44:05.276Z,96188.55
2018-08-13T00:45:40.429Z,96185.96
2018-08-13T00:47:15.389Z,96181.77
2018-08-13T00:50:49.139Z,96175.94
2018-08-13T00:52:24.693Z,96176.16
2018-08-13T00:55:39.930Z,96178.48
2018-08-13T00:57:14.880Z,96184.92
2018-08-13T00:58:49.758Z,96182.89
2018-08-13T01:00:26.023Z,96181.28
2018-08-13T01:02:00.977Z,96181.09
2018-08-13T01:03:35.787Z,96184.17
2018-08-13T01:05:10.740Z,96178.95
2018-08-13T01:06:45.746Z,96187.47
2018-08-13T01:08:20.915Z,96180.16
2018-08-13T01:09:55.755Z,96176.13
2018-08-13T01:11:30.708Z,96173.56
2018-08-13T01:13:05.570Z,96166.17
2018-08-13T01:14:41.484Z,96169.38
2018-08-13T01:16:17.821Z,96159.61
2018-08-13T01:17:52.701Z,96159.58
2018-08-13T01:19:28.181Z,96158.38
2018-08-13T01:22:43.474Z,96155.42
2018-08-13T01:24:21.104Z,96154.87
2018-08-13T01:25:56.975Z,96142.42
2018-08-13T01:27:32.642Z,96147.92
2018-08-13T01:29:08.675Z,96140.36
2018-08-13T01:30:44.816Z,96135.62
2018-08-13T01:32:20.733Z,96135.58
2018-08-13T01:33:57.642Z,96143.87
2018-08-13T01:35:32.475Z,96141.67
2018-08-13T01:37:09.181Z,96144.17
2018-08-13T01:38:44.029Z,96142.42
2018-08-13T01:40:22.503Z,96136.03
2018-08-13T01:42:00.473Z,96138.92
2018-08-13T01:43:36.266Z,96135.78
2018-08-13T01:45:21.566Z,96142.18
2018-08-13T01:46:56.849Z,96134.45
2018-08-13T01:48:33.814Z,96129.77
2018-08-13T01:50:13.544Z,96128.78
2018-08-13T01:51:48.379Z,96120.77
2018-08-13T01:53:25.105Z,96119.56
2018-08-13T01:55:00.004Z,96123.28
2018-08-13T01:56:37.485Z,96126.27
2018-08-13T01:58:12.443Z,96129.36
2018-08-13T01:59:49.339Z,96129.16
2018-08-13T02:01:25.618Z,96127.06
2018-08-13T02:03:00.475Z,96127.78
2018-08-13T02:04:47.103Z,96126.89
2018-08-13T02:06:22.289Z,96121.18
2018-08-13T02:08:01.062Z,96126.78
2018-08-13T02:09:38.547Z,96123.62
2018-08-13T02:11:14.332Z,96124.55
2018-08-13T02:12:50.006Z,96123.28
2018-08-13T02:14:25.963Z,96129.29
2018-08-13T02:16:01.588Z,96128.53
2018-08-13T02:17:36.569Z,96122.59
2018-08-13T02:19:13.992Z,96125.82
2018-08-13T02:20:48.961Z,96121.42
2018-08-13T02:22:24.902Z,96120.67
2018-08-13T02:23:59.868Z,96115.23
2018-08-13T02:25:34.811Z,96112.07
2018-08-13T02:27:10.011Z,96106.02
2018-08-13T02:28:44.946Z,96106.02
2018-08-13T02:30:19.790Z,96106.91
2018-08-13T02:31:55.020Z,96106.05
2018-08-13T02:33:30.075Z,96105.13
2018-08-13T02:35:07.081Z,96102.19
2018-08-13T02:36:42.269Z,96102.38
2018-08-13T02:38:20.158Z,96092.56
2018-08-13T02:39:54.975Z,96093.61
2018-08-13T02:41:30.451Z,96087.55
2018-08-13T02:43:05.299Z,96083.64
2018-08-13T02:44:40.302Z,96083.02
2018-08-13T02:46:15.297Z,96088.36
2018-08-13T02:47:50.886Z,96082.74
2018-08-13T02:49:28.595Z,96080.61
2018-08-13T02:51:03.654Z,96084.47
2018-08-13T02:52:38.842Z,96073.71
2018-08-13T02:54:15.660Z,96076.95
2018-08-13T02:55:51.727Z,96075.25
2018-08-13T02:57:26.919Z,96073.11
2018-08-13T02:59:01.966Z,96070.20
2018-08-13T03:00:37.906Z,96069.17
2018-08-13T03:02:13.012Z,96065.51
2018-08-13T03:03:47.981Z,96065.64
2018-08-13T03:05:23.694Z,96060.22
2018-08-13T03:06:58.667Z,96052.59
2018-08-13T03:08:33.750Z,96052.00
2018-08-13T03:10:11.163Z,96050.35
2018-08-13T03:11:46.247Z,96046.73
2018-08-13T03:13:21.521Z,96046.84
2018-08-13T03:14:56.619Z,96044.07
2018-08-13T03:16:31.559Z,96043.17
2018-08-13T03:18:07.835Z,96040.91
2018-08-13T03:19:42.701Z,96028.05
2018-08-13T03:21:23.483Z,96028.64
2018-08-13T03:22:59.117Z,96028.64
2018-08-13T03:24:34.010Z,96026.89
2018-08-13T03:26:16.562Z,96015.18
2018-08-13T03:27:52.243Z,96022.41
2018-08-13T03:29:30.702Z,96025.34
2018-08-13T03:31:05.636Z,96020.33
2018-08-13T03:32:40.835Z,96013.94
2018-08-13T03:34:15.766Z,96017.31
2018-08-13T03:35:51.404Z,96016.29
2018-08-13T03:37:26.590Z,96016.01
2018-08-13T03:39:02.266Z,96017.80
2018-08-13T03:40:37.247Z,96022.18
2018-08-13T03:42:12.741Z,96018.80
2018-08-13T03:43:47.839Z,96023.16
2018-08-13T03:45:24.608Z,96018.19
2018-08-13T03:47:00.234Z,96019.31
2018-08-13T03:48:35.146Z,96021.63
2018-08-13T03:50:11.599Z,96019.02
2018-08-13T03:51:46.470Z,96011.84
2018-08-13T03:53:25.133Z,96012.01
2018-08-13T03:55:01.111Z,96012.11
2018-08-13T03:56:35.960Z,96010.08
2018-08-13T03:58:10.925Z,96007.50
2018-08-13T03:59:45.863Z,96004.25
2018-08-13T04:01:21.845Z,96004.25
2018-08-13T04:02:56.983Z,96003.50
2018-08-13T04:04:33.440Z,95997.86
2018-08-13T04:06:08.493Z,95988.61
2018-08-13T04:07:46.232Z,95990.25
2018-08-13T04:09:21.353Z,95995.62
2018-08-13T04:10:57.061Z,95994.80
2018-08-13T04:12:32.031Z,96001.20
2018-08-13T04:14:08.212Z,95998.56
2018-08-13T04:15:45.041Z,96013.98
2018-08-13T04:17:20.337Z,96011.48
2018-08-13T04:18:56.824Z,96013.38
2018-08-13T04:20:32.691Z,96014.26
2018-08-13T04:22:07.605Z,96017.80
2018-08-13T04:23:43.592Z,96012.03
2018-08-13T04:25:21.714Z,96015.56
2018-08-13T04:26:56.678Z,96010.28
2018-08-13T04:28:34.679Z,96028.73
2018-08-13T04:30:16.700Z,96040.50
2018-08-13T04:31:51.570Z,96051.30
2018-08-13T04:33:30.327Z,96056.36
2018-08-13T04:35:05.325Z,96047.46
2018-08-13T04:36:40.271Z,96053.33
2018-08-13T04:38:15.120Z,96069.89
2018-08-13T04:39:51.180Z,96063.87
2018-08-13T04:41:26.467Z,96068.76
2018-08-13T04:43:01.442Z,96067.23
2018-08-13T04:44:37.336Z,96065.60
2018-08-13T04:46:12.283Z,96071.23
2018-08-13T04:47:50.354Z,96074.99
2018-08-13T04:49:25.558Z,96069.47
2018-08-13T04:51:00.611Z,96078.77
2018-08-13T04:52:37.943Z,96075.84
2018-08-13T04:54:12.791Z,96072.30
2018-08-13T04:55:48.669Z,96077.31
2018-08-13T04:57:24.120Z,96077.44
2018-08-13T04:59:00.668Z,96073.03
2018-08-13T05:00:35.578Z,96080.78
2018-08-13T05:02:10.612Z,96080.28
2018-08-13T05:03:45.820Z,96082.16
2018-08-13T05:05:21.255Z,96088.95
2018-08-13T05:06:56.216Z,96086.43
2018-08-13T05:08:31.327Z,96088.69
2018-08-13T05:10:07.315Z,96083.16
2018-08-13T05:11:43.951Z,96080.36
2018-08-13T05:13:19.339Z,96086.52
2018-08-13T05:14:54.472Z,96100.09
2018-08-13T05:16:29.374Z,96103.73
2018-08-13T05:18:04.272Z,96116.30
2018-08-13T05:19:39.193Z,96105.48
2018-08-13T05:21:14.529Z,96097.83
2018-08-13T05:22:49.472Z,96093.80
2018-08-13T05:24:24.374Z,96090.16
2018-08-13T05:26:00.578Z,96087.77
2018-08-13T05:27:36.231Z,96091.83
2018-08-13T05:29:14.297Z,96096.70
2018-08-13T05:30:49.713Z,96097.83
2018-08-13T05:32:24.742Z,96094.42
2018-08-13T05:34:01.049Z,96093.75
2018-08-13T05:35:37.556Z,96103.55
2018-08-13T05:37:13.745Z,96097.13
2018-08-13T05:38:48.761Z,96090.35
2018-08-13T05:40:23.590Z,96085.17
2018-08-13T05:42:01.137Z,96080.91
2018-08-13T05:43:36.349Z,96083.87
2018-08-13T05:45:15.226Z,96089.48
2018-08-13T05:46:50.257Z,96083.56
2018-08-13T05:48:27.674Z,96085.68
2018-08-13T05:50:05.288Z,96080.78
2018-08-13T05:51:41.466Z,96072.21
2018-08-13T05:53:17.237Z,96074.92
2018-08-13T05:54:53.701Z,96076.28
2018-08-13T05:56:31.648Z,96078.55
2018-08-13T05:58:08.278Z,96084.53
2018-08-13T05:59:43.289Z,96098.01
2018-08-13T06:01:22.670Z,96106.80
2018-08-13T06:02:58.452Z,96112.58
2018-08-13T06:04:36.887Z,96124.98
2018-08-13T06:06:14.607Z,96138.25
2018-08-13T06:07:57.211Z,96144.41
2018-08-13T06:09:34.651Z,96150.20
2018-08-13T06:11:09.676Z,96144.85
2018-08-13T06:12:45.999Z,96159.23
2018-08-13T06:14:22.764Z,96154.47
2018-08-13T06:15:59.095Z,96161.25
2018-08-13T06:17:35.407Z,96158.15
2018-08-13T06:19:11.690Z,96164.59
2018-08-13T06:20:48.501Z,96168.89
2018-08-13T06:22:24.605Z,96172.91
2018-08-13T06:24:03.543Z,96175.17
2018-08-13T06:25:40.073Z,96171.88
2018-08-13T06:27:21.990Z,96166.75
2018-08-13T06:28:59.002Z,96159.86
2018-08-13T06:30:36.850Z,96159.60
2018-08-13T06:32:15.468Z,96158.63
2018-08-13T06:33:50.526Z,96149.06
2018-08-13T06:35:29.106Z,96132.14
2018-08-13T06:37:06.550Z,96121.09
2018-08-13T06:38:45.542Z,96108.91
2018-08-13T06:40:22.600Z,96090.73
2018-08-13T06:42:01.702Z,96071.52
2018-08-13T06:43:37.068Z,96071.41
2018-08-13T06:45:16.025Z,96080.55
2018-08-13T06:46:52.915Z,96073.80
2018-08-13T06:48:28.891Z,96095.73
2018-08-13T06:50:03.965Z,96114.43
2018-08-13T06:51:39.534Z,96125.70
2018-08-13T06:53:16.892Z,96121.72
2018-08-13T06:54:51.970Z,96111.80
2018-08-13T06:56:29.141Z,96100.75
2018-08-13T06:58:04.753Z,96092.23
2018-08-13T06:59:40.277Z,96088.59
2018-08-13T07:01:17.639Z,96087.47
2018-08-13T07:02:52.672Z,96089.35
2018-08-13T07:04:28.925Z,96083.08
2018-08-13T07:06:04.881Z,96090.09
2018-08-13T07:07:42.476Z,96094.36
2018-08-13T07:09:33.104Z,96105.38
2018-08-13T07:11:08.741Z,96110.75
2018-08-13T07:12:47.162Z,96110.75
2018-08-13T07:14:25.645Z,96107.64
2018-08-13T07:16:01.461Z,96108.89
2018-08-13T07:17:39.239Z,96101.45
2018-08-13T07:19:14.625Z,96104.97
2018-08-13T07:20:51.270Z,96105.72
2018-08-13T07:22:30.264Z,96101.45
2018-08-13T07:24:06.614Z,96098.84
2018-08-13T07:25:47.155Z,96099.33
2018-08-13T07:27:22.381Z,96099.46
2018-08-13T07:28:57.468Z,96092.44
2018-08-13T07:30:35.266Z,96088.03
2018-08-13T07:32:10.714Z,96087.05
2018-08-13T07:33:46.774Z,96087.53
2018-08-13T07:35:21.834Z,96093.80
2018-08-13T07:37:00.784Z,96100.88
2018-08-13T07:38:36.448Z,96098.23
2018-08-13T07:40:15.356Z,96098.00
2018-08-13T07:41:50.471Z,96097.98
2018-08-13T07:43:29.443Z,96097.75
2018-08-13T07:45:14.636Z,96101.64
2018-08-13T07:46:52.661Z,96089.22
2018-08-13T07:48:28.154Z,96098.88
2018-08-13T07:50:06.719Z,96097.00
2018-08-13T07:51:43.003Z,96096.87
2018-08-13T07:53:18.261Z,96103.77
2018-08-13T07:54:55.422Z,96097.50
2018-08-13T07:56:37.284Z,96095.22
2018-08-13T07:58:12.666Z,96100.73
2018-08-13T07:59:53.156Z,96092.57
2018-08-13T08:01:30.555Z,96084.01
2018-08-13T08:03:09.858Z,96078.83
2018-08-13T08:04:45.421Z,96081.83
2018-08-13T08:06:28.336Z,96080.56
2018-08-13T08:08:11.434Z,96083.92
2018-08-13T08:09:49.365Z,96087.94
2018-08-13T08:11:28.675Z,96091.86
2018-08-13T08:13:07.301Z,96095.62
2018-08-13T08:14:46.144Z,96087.83
2018-08-13T08:16:23.637Z,96085.92
2018-08-13T08:18:00.334Z,96089.88
2018-08-13T08:19:38.778Z,96095.17
2018-08-13T08:21:14.540Z,96097.86
2018-08-13T08:22:54.775Z,96102.23
2018-08-13T08:24:31.267Z,96097.34
2018-08-13T08:26:09.272Z,96102.85
2018-08-13T08:27:46.452Z,96108.27
2018-08-13T08:29:22.456Z,96109.56
2018-08-13T08:30:58.849Z,96111.43
2018-08-13T08:32:34.342Z,96096.84
2018-08-13T08:34:11.913Z,96096.75
2018-08-13T08:35:48.535Z,96090.81
2018-08-13T08:37:26.303Z,96094.62
2018-08-13T08:39:06.328Z,96101.59
2018-08-13T08:40:41.618Z,96103.85
2018-08-13T08:42:18.235Z,96112.28
2018-08-13T08:43:53.790Z,96114.58
2018-08-13T08:45:29.184Z,96105.98
2018-08-13T08:47:07.665Z,96106.17
2018-08-13T08:48:42.602Z,96101.95
2018-08-13T08:50:18.597Z,96100.63
2018-08-13T08:51:56.722Z,96094.66
2018-08-13T08:53:33.976Z,96093.27
2018-08-13T08:55:16.632Z,96091.95
2018-08-13T08:56:52.965Z,96096.51
2018-08-13T08:58:29.974Z,96091.87
2018-08-13T09:00:14.627Z,96096.84
2018-08-13T09:01:50.837Z,96092.31
2018-08-13T09:03:38.294Z,96094.72
2018-08-13T09:05:16.941Z,96100.27
2018-08-13T09:06:53.112Z,96087.02
2018-08-13T09:08:28.774Z,96091.44
2018-08-13T09:10:04.493Z,96097.27
2018-08-13T09:11:44.286Z,96099.88
2018-08-13T09:13:22.817Z,96095.14
2018-08-13T09:14:59.858Z,96093.75
2018-08-13T09:16:37.247Z,96102.70
2018-08-13T09:18:24.152Z,96105.98
2018-08-13T09:20:12.653Z,96099.16
2018-08-13T09:21:53.395Z,96102.38
2018-08-13T09:23:39.364Z,96099.16
2018-08-13T09:25:25.328Z,96091.69
2018-08-13T09:27:15.696Z,96093.53
2018-08-13T09:31:06.241Z,96088.02
2018-08-13T09:32:54.226Z,96085.77
2018-08-13T09:35:34.496Z,96086.41
2018-08-13T09:37:10.684Z,96086.44
2018-08-13T09:38:46.210Z,96090.59
2018-08-13T09:40:22.107Z,96087.88
2018-08-13T09:42:00.125Z,96087.12
2018-08-13T09:43:35.556Z,96089.30
2018-08-13T09:45:13.361Z,96082.59
2018-08-13T09:46:50.738Z,96074.47
2018-08-13T09:48:26.073Z,96073.55
2018-08-13T09:50:07.494Z,96076.55
2018-08-13T09:51:42.795Z,96076.69
2018-08-13T09:53:20.285Z,96075.34
2018-08-13T09:54:56.513Z,96080.71
2018-08-13T09:56:35.194Z,96079.30
2018-08-13T09:58:13.220Z,96076.13
2018-08-13T09:59:52.577Z,96076.36
2018-08-13T10:01:30.266Z,96075.75
2018-08-13T10:03:06.622Z,96073.27
2018-08-13T10:04:41.593Z,96073.67
2018-08-13T10:06:18.186Z,96075.43
2018-08-13T10:07:54.024Z,96070.36
2018-08-13T10:09:31.213Z,96075.41
2018-08-13T10:11:09.286Z,96073.95
2018-08-13T10:12:45.735Z,96073.34
2018-08-13T10:14:22.685Z,96081.50
2018-08-13T10:16:02.923Z,96078.95
2018-08-13T10:17:41.070Z,96080.09
2018-08-13T10:19:15.994Z,96075.47
2018-08-13T10:20:54.164Z,96076.28
2018-08-13T10:24:15.643Z,96090.52
2018-08-13T10:25:52.638Z,96083.77
2018-08-13T10:27:27.662Z,96080.98
2018-08-13T10:29:07.677Z,96076.09
2018-08-13T10:30:44.102Z,96081.96
2018-08-13T10:32:22.960Z,96084.37
2018-08-13T10:34:02.257Z,96085.59
2018-08-13T10:35:49.326Z,96084.66
2018-08-13T10:37:28.309Z,96083.89
2018-08-13T10:39:07.108Z,96090.01
2018-08-13T10:40:48.762Z,96087.23
2018-08-13T10:42:26.505Z,96083.58
2018-08-13T10:44:11.863Z,96085.13
2018-08-13T10:45:47.376Z,96080.78
2018-08-13T10:47:23.365Z,96071.49
2018-08-13T10:48:59.109Z,96065.38
2018-08-13T10:50:35.048Z,96069.04
2018-08-13T10:52:14.153Z,96078.07
2018-08-13T10:53:53.251Z,96084.27
2018-08-13T10:57:24.749Z,96096.50
2018-08-13T10:59:01.563Z,96095.75
2018-08-13T11:00:39.531Z,96096.76
2018-08-13T11:02:15.078Z,96084.96
2018-08-13T11:03:55.635Z,96085.52
2018-08-13T11:05:32.578Z,96084.56
2018-08-13T11:07:14.214Z,96088.20
2018-08-13T11:08:49.830Z,96087.97
2018-08-13T11:10:27.323Z,96089.34
2018-08-13T11:12:07.857Z,96094.51
2018-08-13T11:13:43.229Z,96091.33
2018-08-13T11:15:29.526Z,96089.33
2018-08-13T11:17:07.313Z,96101.08
2018-08-13T11:18:54.881Z,96098.06
2018-08-13T11:20:32.590Z,96091.32
2018-08-13T11:22:16.025Z,96090.42
2018-08-13T11:23:53.512Z,96088.39
2018-08-13T11:25:35.356Z,96099.88
2018-08-13T11:27:13.804Z,96092.72
2018-08-13T11:28:51.156Z,96096.89
2018-08-13T11:30:28.924Z,96090.95
2018-08-13T11:32:12.457Z,96094.22
2018-08-13T11:33:50.589Z,96093.18
2018-08-13T11:35:30.512Z,96088.97
2018-08-13T11:37:09.091Z,96088.01
2018-08-13T11:38:44.959Z,96078.06
2018-08-13T11:40:24.542Z,96081.74
2018-08-13T11:42:01.359Z,96082.20
2018-08-13T11:43:41.298Z,96077.95
2018-08-13T11:45:19.751Z,96080.55
2018-08-13T11:46:59.424Z,96074.71
2018-08-13T11:48:36.494Z,96083.70
2018-08-13T11:50:21.236Z,96081.94
2018-08-13T11:51:58.356Z,96082.86
2018-08-13T11:53:41.469Z,96077.38
2018-08-13T11:55:24.333Z,96077.11
2018-08-13T11:57:02.836Z,96078.58
2018-08-13T11:58:43.967Z,96081.42
2018-08-13T12:00:19.726Z,96078.77
2018-08-13T12:01:56.311Z,96079.70
2018-08-13T12:03:33.426Z,96078.39
2018-08-13T12:05:13.154Z,96078.01
2018-08-13T12:06:50.121Z,96079.22
2018-08-13T12:08:25.497Z,96073.99
2018-08-13T12:10:03.113Z,96076.13
2018-08-13T12:11:39.237Z,96070.18
2018-08-13T12:13:19.257Z,96069.21
2018-08-13T12:14:58.672Z,96070.48
2018-08-13T12:16:33.820Z,96062.39
2018-08-13T12:18:10.520Z,96059.85
2018-08-13T12:19:47.277Z,96056.40
2018-08-13T12:21:22.308Z,96055.21
2018-08-13T12:23:00.076Z,96052.19
2018-08-13T12:24:37.098Z,96042.19
2018-08-13T12:26:16.020Z,96035.48
2018-08-13T12:27:56.457Z,96032.52
2018-08-13T12:29:32.829Z,96026.77
2018-08-13T12:31:18.381Z,96014.50
2018-08-13T12:32:59.547Z,96015.25
2018-08-13T12:34:35.245Z,96020.27
2018-08-13T12:36:13.139Z,96017.45
2018-08-13T12:37:48.778Z,96010.10
2018-08-13T12:39:25.778Z,96013.64
2018-08-13T12:41:03.228Z,96007.87
2018-08-13T12:42:39.669Z,96012.63
2018-08-13T12:44:15.882Z,96005.75
2018-08-13T12:45:51.554Z,96003.31
2018-08-13T12:47:26.683Z,95996.34
2018-08-13T12:49:03.463Z,95985.88
2018-08-13T12:50:39.621Z,95987.92
2018-08-13T12:52:20.388Z,95991.42
2018-08-13T12:53:58.667Z,95997.52
2018-08-13T12:55:34.497Z,96001.66
2018-08-13T12:57:09.967Z,96000.88
2018-08-13T12:58:46.716Z,96007.73
2018-08-13T13:00:22.688Z,96010.44
2018-08-13T13:01:59.351Z,96002.37
2018-08-13T13:03:34.804Z,96000.28
2018-08-13T13:05:19.069Z,95989.27
2018-08-13T13:06:56.305Z,95981.47
2018-08-13T13:08:35.305Z,95976.54
2018-08-13T13:10:19.232Z,95967.57
2018-08-13T13:11:57.472Z,95964.38
2018-08-13T13:13:34.503Z,95960.71
2018-08-13T13:15:32.789Z,95961.11
2018-08-13T13:17:18.156Z,95962.44
2018-08-13T13:18:54.338Z,95959.88
2018-08-13T13:20:31.864Z,95957.91
2018-08-13T13:22:07.661Z,95948.16
2018-08-13T13:23:45.266Z,95946.81
2018-08-13T13:25:21.575Z,95949.94
2018-08-13T13:26:59.347Z,95939.08
2018-08-13T13:28:36.284Z,95933.35
2018-08-13T13:30:17.625Z,95922.47
2018-08-13T13:31:54.005Z,95913.80
2018-08-13T13:33:33.124Z,95911.30
2018-08-13T13:35:09.472Z,95922.34
2018-08-13T13:36:47.512Z,95942.64
2018-08-13T13:38:27.285Z,95974.58
2018-08-13T13:40:09.486Z,95978.09
2018-08-13T13:41:47.049Z,95999.20
2018-08-13T13:43:26.533Z,96017.70
2018-08-13T13:45:09.522Z,96019.49
2018-08-13T13:46:44.609Z,96029.12
2018-08-13T13:48:21.568Z,96022.31
2018-08-13T13:49:58.596Z,96031.88
2018-08-13T13:51:35.231Z,96042.00
2018-08-13T13:53:12.223Z,96033.97
2018-08-13T13:54:51.617Z,96026.73
2018-08-13T13:56:30.972Z,96032.14
2018-08-13T13:58:07.937Z,96031.97
2018-08-13T14:00:48.253Z,96036.88
2018-08-13T14:02:25.520Z,96036.69
2018-08-13T14:04:02.481Z,96041.06
2018-08-13T14:05:40.437Z,96038.72
2018-08-13T14:07:19.942Z,96043.41
2018-08-13T14:09:00.802Z,96037.87
2018-08-13T14:10:40.020Z,96033.78
2018-08-13T14:24:43.897Z,96009.21
2018-08-13T14:26:22.497Z,96002.26
2018-08-13T14:28:03.547Z,96000.20
2018-08-13T14:29:38.868Z,96001.36
2018-08-13T14:31:17.617Z,95999.66
2018-08-13T14:33:02.117Z,96002.03
2018-08-13T14:34:42.247Z,95999.78
2018-08-13T14:36:36.928Z,96004.06
2018-08-13T14:38:36.662Z,96004.29
2018-08-13T14:40:14.668Z,95994.75
2018-08-13T14:41:52.062Z,95997.47
2018-08-13T14:43:29.542Z,95999.50
2018-08-13T14:45:08.925Z,95997.31
2018-08-13T14:48:31.525Z,96012.13
2018-08-13T14:50:10.057Z,96004.56
2018-08-13T14:51:47.594Z,96010.15
2018-08-13T14:53:25.631Z,96008.98
2018-08-13T14:55:05.025Z,96008.87
2018-08-13T14:56:45.322Z,96008.46
2018-08-13T14:58:26.307Z,96006.73
2018-08-13T15:00:08.593Z,96006.38
2018-08-13T15:03:42.355Z,96005.20
2018-08-13T15:05:52.889Z,96004.20
2018-08-13T15:07:30.261Z,96001.34
2018-08-13T15:09:09.212Z,96003.06
2018-08-13T15:10:49.009Z,96001.28
2018-08-13T15:14:07.377Z,96003.29
2018-08-13T15:15:44.429Z,96015.27
2018-08-13T15:17:22.775Z,96011.23
2018-08-13T15:18:59.531Z,96019.45
2018-08-13T15:20:35.611Z,96012.59
2018-08-13T15:22:11.659Z,96016.22
2018-08-13T15:23:47.604Z,96024.81
2018-08-13T15:25:26.104Z,96023.77
2018-08-13T15:27:09.549Z,96022.75
2018-08-13T15:28:47.267Z,96022.65
2018-08-13T15:30:27.858Z,96029.59
2018-08-13T15:32:05.233Z,96023.95
2018-08-13T15:33:45.946Z,96024.52
2018-08-13T15:35:25.076Z,96030.70
2018-08-13T15:37:01.553Z,96022.90
2018-08-13T15:38:39.687Z,96021.08
2018-08-13T15:40:16.584Z,96019.78
2018-08-13T15:41:54.816Z,96022.02
2018-08-13T15:43:32.405Z,96028.84
2018-08-13T15:45:12.795Z,96026.53
2018-08-13T15:46:49.063Z,96036.44
2018-08-13T15:48:25.572Z,96039.46
2018-08-13T15:50:01.281Z,96039.30
2018-08-13T15:51:39.290Z,96033.89
2018-08-13T15:53:20.661Z,96029.34
2018-08-13T15:55:01.262Z,96033.92
2018-08-13T15:56:40.926Z,96036.27
2018-08-13T15:58:17.340Z,96051.94
2018-08-13T15:59:58.292Z,96047.15
2018-08-13T16:01:41.221Z,96046.98
2018-08-13T16:03:19.287Z,96046.51
2018-08-13T16:05:03.572Z,96032.83
2018-08-13T16:06:46.484Z,96032.66
2018-08-13T16:08:35.725Z,96027.59
2018-08-13T16:10:21.111Z,96027.58
2018-08-13T16:12:03.061Z,96029.09
2018-08-13T16:13:55.698Z,96028.89
2018-08-13T16:15:52.970Z,96021.27
2018-08-13T16:17:34.273Z,96025.95
2018-08-13T16:19:15.202Z,96025.33
2018-08-13T16:21:00.194Z,96024.58
2018-08-13T16:22:42.375Z,96018.22
2018-08-13T16:24:22.016Z,96023.64
2018-08-13T16:26:01.263Z,96023.88
2018-08-13T16:27:39.453Z,96022.16
2018-08-13T16:29:21.648Z,96023.13
2018-08-13T16:31:09.184Z,96017.89
2018-08-13T16:32:53.352Z,96020.58
2018-08-13T16:36:38.598Z,96018.64
2018-08-13T16:38:18.055Z,96018.12
2018-08-13T16:39:56.593Z,96024.87
2018-08-13T16:41:34.335Z,96022.69
2018-08-13T16:43:15.420Z,96022.09
2018-08-13T16:44:53.343Z,96013.73
2018-08-13T16:46:41.230Z,96015.68
2018-08-13T16:48:21.680Z,96013.55
2018-08-13T16:50:02.950Z,96010.26
2018-08-13T16:51:52.532Z,96008.44
2018-08-13T16:53:29.253Z,96001.70
2018-08-13T16:55:06.994Z,96010.48
2018-08-13T16:56:43.849Z,96005.06
2018-08-13T16:58:21.182Z,96005.93
2018-08-13T17:00:00.782Z,96000.31
2018-08-13T17:01:43.404Z,96004.92
2018-08-13T17:03:26.304Z,96004.65
2018-08-13T17:05:02.900Z,96001.28
2018-08-13T17:06:40.267Z,96009.02
2018-08-13T17:08:41.475Z,96011.55
2018-08-13T17:10:25.390Z,96012.45
2018-08-13T17:12:06.879Z,96013.33
2018-08-13T17:13:51.635Z,96012.91
2018-08-13T17:15:31.934Z,96019.52
2018-08-13T17:17:23.255Z,96009.71
2018-08-13T17:19:06.038Z,96016.69
2018-08-13T17:20:55.960Z,96027.19
2018-08-13T17:22:41.419Z,96025.46
2018-08-13T17:24:28.988Z,96027.59
2018-08-13T17:26:06.432Z,96034.88
2018-08-13T17:27:43.505Z,96045.19
2018-08-13T17:29:23.569Z,96046.43
2018-08-13T17:30:59.849Z,96043.93
2018-08-13T17:32:38.188Z,96032.88
2018-08-13T17:34:19.583Z,96025.13
2018-08-13T17:37:56.709Z,96042.98
2018-08-13T17:39:33.801Z,96042.12
2018-08-13T17:41:11.718Z,96038.44
2018-08-13T17:42:49.428Z,96040.92
2018-08-13T17:44:25.859Z,96041.92
2018-08-13T17:46:06.392Z,96037.31
2018-08-13T17:47:47.241Z,96038.37
2018-08-13T17:49:30.938Z,96040.08
2018-08-13T17:51:07.359Z,96040.91
2018-08-13T17:52:44.752Z,96040.63
2018-08-13T17:54:22.652Z,96044.72
2018-08-13T17:56:00.142Z,96043.27
2018-08-13T17:57:39.007Z,96044.10
2018-08-13T17:59:17.542Z,96049.16
2018-08-13T18:02:37.207Z,96050.06
2018-08-13T18:04:13.352Z,96045.08
2018-08-13T18:05:50.171Z,96043.14
2018-08-13T18:07:28.961Z,96046.39
2018-08-13T18:09:05.226Z,96047.76
2018-08-13T18:10:45.876Z,96047.72
2018-08-13T18:12:21.272Z,96040.25
2018-08-13T18:13:58.756Z,96049.90
2018-08-13T18:15:37.966Z,96048.27
2018-08-13T18:17:15.214Z,96048.52
2018-08-13T18:18:52.151Z,96046.89
2018-08-13T18:20:28.717Z,96044.58
2018-08-13T18:22:10.248Z,96048.97
2018-08-13T18:23:53.121Z,96050.12
2018-08-13T18:25:28.521Z,96056.05
2018-08-13T18:27:07.240Z,96057.67
2018-08-13T18:28:44.880Z,96056.71
2018-08-13T18:30:28.874Z,96064.50
2018-08-13T18:32:05.182Z,96064.41
2018-08-13T18:33:40.837Z,96066.38
2018-08-13T18:35:16.772Z,96070.84
2018-08-13T18:36:54.369Z,96071.62
2018-08-13T18:38:30.510Z,96076.13
2018-08-13T18:40:11.529Z,96079.72
2018-08-13T18:41:48.575Z,96076.64
2018-08-13T18:43:25.168Z,96079.56
2018-08-13T18:45:06.658Z,96085.98
2018-08-13T18:46:43.642Z,96088.91
2018-08-13T18:48:19.925Z,96098.84
2018-08-13T18:49:57.732Z,96097.11
2018-08-13T18:51:34.841Z,96094.09
2018-08-13T18:53:18.324Z,96092.73
2018-08-13T18:55:12.749Z,96097.25
2018-08-13T18:56:51.781Z,96099.77
2018-08-13T18:58:34.176Z,96094.60
2018-08-13T19:00:15.521Z,96101.63
2018-08-13T19:01:52.445Z,96103.02
2018-08-13T19:03:29.684Z,96106.22
2018-08-13T19:05:06.895Z,96110.36
2018-08-13T19:06:45.386Z,96107.97
2018-08-13T19:08:23.977Z,96110.70
2018-08-13T19:09:59.151Z,96115.34
2018-08-13T19:11:37.927Z,96113.96
2018-08-13T19:13:14.004Z,96119.61
2018-08-13T19:14:53.770Z,96120.36
2018-08-13T19:16:32.524Z,96121.61
2018-08-13T19:18:15.088Z,96125.48
2018-08-13T19:19:51.716Z,96123.74
2018-08-13T19:21:27.250Z,96130.90
2018-08-13T19:23:14.963Z,96133.03
2018-08-13T19:24:51.650Z,96127.88
2018-08-13T19:26:31.014Z,96132.90
2018-08-13T19:30:00.823Z,96137.06
2018-08-13T19:31:47.610Z,96131.67
2018-08-13T19:33:24.875Z,96132.80
2018-08-13T19:35:08.988Z,96133.94
2018-08-13T19:37:00.647Z,96137.32
2018-08-13T19:38:43.769Z,96140.44
2018-08-13T19:40:26.358Z,96137.19
2018-08-13T19:42:11.950Z,96140.21
2018-08-13T19:43:53.169Z,96146.83
2018-08-13T19:45:28.335Z,96148.92
2018-08-13T19:47:05.352Z,96146.04
2018-08-13T19:48:47.326Z,96148.14
2018-08-13T19:50:24.426Z,96146.86
2018-08-13T19:52:03.715Z,96159.00
2018-08-13T19:53:43.298Z,96154.69